Time;durP1;ratioP1;P1;durP2;ratioP2;P2;SDS_P1;SDS_P2;PMS_P1;PMS_P2;Temp;Humidity;BMP_temperature;BMP_pressure;BME280_temperature;BME280_humidity;BME280_pressure;Samples;Min_cycle;Max_cycle;Signal;HPM_P1;HPM_P2
2023/07/03 00:02:00;;;;;;;11.90;5.93;;;;;;;23.66;58.91;99638.52;123325;1099;104352;-77
2023/07/03 00:04:35;;;;;;;14.70;6.20;;;;;;;23.64;58.46;99639.52;123613;1099;104808;-77
2023/07/03 00:07:07;;;;;;;12.37;6.47;;;;;;;23.61;58.42;99636.94;123209;1099;104373;-80
2023/07/03 00:09:39;;;;;;;10.77;5.80;;;;;;;23.56;58.92;99639.75;123483;1099;104325;-77
2023/07/03 00:12:13;;;;;;;10.57;6.33;;;;;;;23.55;58.95;99640.67;123455;1099;104338;-77
2023/07/03 00:14:45;;;;;;;14.13;6.30;;;;;;;23.54;58.65;99636.23;123583;1098;104714;-78
2023/07/03 00:17:16;;;;;;;13.90;6.30;;;;;;;23.53;59.12;99638.95;123467;1099;105672;-78
2023/07/03 00:19:48;;;;;;;11.90;6.00;;;;;;;23.44;59.44;99638.33;123632;1099;104239;-76
2023/07/03 00:22:20;;;;;;;11.70;6.17;;;;;;;23.37;58.84;99641.23;123489;1099;104267;-76
2023/07/03 00:24:52;;;;;;;13.22;6.05;;;;;;;23.37;59.44;99635.88;123495;1099;104251;-77
2023/07/03 00:27:23;;;;;;;8.77;5.87;;;;;;;23.37;59.34;99630.53;123507;1099;104246;-76
2023/07/03 00:29:54;;;;;;;10.27;6.27;;;;;;;23.34;59.85;99636.84;123570;1099;104347;-77
2023/07/03 00:32:28;;;;;;;12.90;6.40;;;;;;;23.31;59.85;99644.97;123400;1098;104386;-76
2023/07/03 00:34:59;;;;;;;11.53;5.97;;;;;;;23.26;59.90;99642.42;123324;1099;104335;-77
2023/07/03 00:37:31;;;;;;;12.15;6.25;;;;;;;23.16;59.75;99643.64;123470;1099;104393;-77
2023/07/03 00:40:03;;;;;;;11.30;6.35;;;;;;;23.07;59.74;99642.08;123603;1099;104273;-77
2023/07/03 00:42:34;;;;;;;14.30;6.90;;;;;;;22.98;60.27;99640.56;123541;1099;104248;-76
2023/07/03 00:45:08;;;;;;;11.17;6.37;;;;;;;22.92;60.60;99645.19;123551;1099;104344;-76
2023/07/03 00:47:40;;;;;;;14.00;6.43;;;;;;;22.81;60.30;99658.86;123559;1099;104379;-77
2023/07/03 00:50:12;;;;;;;11.47;6.00;;;;;;;22.74;60.79;99654.62;123459;1099;104736;-77
2023/07/03 00:52:44;;;;;;;10.33;6.47;;;;;;;22.73;60.93;99660.88;123554;1099;104344;-76
2023/07/03 00:55:15;;;;;;;12.15;6.05;;;;;;;22.76;61.35;99655.45;123606;1099;104246;-77
2023/07/03 00:57:46;;;;;;;11.45;6.40;;;;;;;22.80;61.09;99662.48;123459;1099;104261;-77
2023/07/03 01:00:21;;;;;;;13.20;6.53;;;;;;;22.83;61.32;99666.84;123628;1099;104242;-77
2023/07/03 01:03:01;;;;;;;14.77;6.60;;;;;;;22.82;61.11;99671.33;123583;1099;104389;-76
2023/07/03 01:05:39;;;;;;;14.60;6.55;;;;;;;22.77;61.44;99673.27;123544;1098;104261;-77
2023/07/03 01:08:12;;;;;;;12.10;6.37;;;;;;;22.70;61.39;99677.02;123320;1099;104348;-77
2023/07/03 01:10:44;;;;;;;11.40;6.80;;;;;;;22.61;61.39;99681.70;123553;1099;104341;-77
2023/07/03 01:13:18;;;;;;;11.30;6.80;;;;;;;22.52;61.83;99691.77;123625;1099;104355;-77
2023/07/03 01:15:50;;;;;;;14.00;6.33;;;;;;;22.47;62.43;99686.55;123490;1099;104900;-76
2023/07/03 01:18:22;;;;;;;12.35;6.75;;;;;;;22.46;62.08;99698.14;123574;1099;104280;-78
2023/07/03 01:21:00;;;;;;;11.03;6.40;;;;;;;22.48;61.96;99700.78;123507;1099;104344;-76
2023/07/03 01:23:37;;;;;;;12.20;6.90;;;;;;;22.48;62.46;99696.30;123480;1099;104412;-76
2023/07/03 01:26:11;;;;;;;11.47;6.73;;;;;;;22.50;62.82;99697.16;123562;1099;104352;-78
2023/07/03 01:28:44;;;;;;;15.53;6.87;;;;;;;22.50;61.94;99701.60;123464;1099;104268;-76
2023/07/03 01:31:16;;;;;;;;;;;;;;;22.49;61.53;99711.43;123492;1099;104288;-77
2023/07/03 01:33:48;;;;;;;15.63;6.63;;;;;;;22.51;62.39;99717.61;123544;1098;104239;-76
2023/07/03 01:36:20;;;;;;;12.70;7.23;;;;;;;22.52;62.02;99714.02;123520;1099;104264;-77
2023/07/03 01:38:53;;;;;;;12.93;7.07;;;;;;;22.55;62.86;99718.42;123504;1099;104188;-77
2023/07/03 01:41:25;;;;;;;20.60;7.10;;;;;;;22.53;62.66;99710.45;123442;1099;104336;-77
2023/07/03 01:43:56;;;;;;;14.17;6.63;;;;;;;22.53;63.03;99726.48;123537;1099;104274;-77
2023/07/03 01:46:28;;;;;;;13.63;6.60;;;;;;;22.54;63.16;99730.89;123497;1099;104235;-77
2023/07/03 01:48:59;;;;;;;16.30;7.00;;;;;;;22.50;62.97;99726.56;123464;1099;104382;-77
2023/07/03 01:51:38;;;;;;;14.50;7.57;;;;;;;22.49;63.24;99731.95;123522;1099;104373;-76
2023/07/03 01:54:17;;;;;;;11.90;7.03;;;;;;;22.46;62.84;99729.35;123457;1099;104376;-76
2023/07/03 01:56:50;;;;;;;12.83;7.30;;;;;;;22.44;63.45;99735.61;123575;1099;104303;-77
2023/07/03 01:59:27;;;;;;;13.00;7.12;;;;;;;22.31;63.46;99738.62;123477;1099;104264;-77
2023/07/03 02:02:04;;;;;;;14.70;7.77;;;;;;;22.17;63.51;99736.25;123410;1099;104246;-75
2023/07/03 02:04:39;;;;;;;13.70;8.17;;;;;;;22.01;63.79;99744.63;123505;1099;104287;-76
2023/07/03 02:07:12;;;;;;;13.97;8.00;;;;;;;21.88;63.61;99746.70;123522;1099;104881;-76
2023/07/03 02:09:43;;;;;;;;;;;;;;;21.77;63.50;99746.08;123569;1099;104287;-77
2023/07/03 02:12:14;;;;;;;19.77;8.37;;;;;;;21.70;64.21;99747.12;123243;1099;104281;-77
2023/07/03 02:14:46;;;;;;;16.93;8.43;;;;;;;21.61;64.31;99748.19;123510;1099;104322;-77
2023/07/03 02:17:17;;;;;;;16.60;8.50;;;;;;;21.50;64.79;99745.77;123523;1099;104373;-76
2023/07/03 02:19:50;;;;;;;18.07;8.43;;;;;;;21.42;64.22;99749.47;123494;1099;104340;-76
2023/07/03 02:22:21;;;;;;;14.17;8.07;;;;;;;21.36;64.98;99753.12;123513;1099;104259;-77
2023/07/03 02:24:53;;;;;;;19.83;8.43;;;;;;;21.32;65.53;99754.99;123603;1099;104313;-77
2023/07/03 02:27:24;;;;;;;19.33;9.00;;;;;;;21.29;64.79;99756.86;123523;1099;104626;-76
2023/07/03 02:29:55;;;;;;;14.20;8.57;;;;;;;21.22;65.09;99764.08;123643;1099;104274;-77
2023/07/03 02:32:34;;;;;;;15.65;8.95;;;;;;;21.23;64.87;99767.65;123571;1099;104500;-78
2023/07/03 02:35:07;;;;;;;15.15;8.75;;;;;;;21.19;65.21;99773.05;123668;1099;104373;-78
2023/07/03 02:37:38;;;;;;;17.93;9.17;;;;;;;21.16;65.44;99777.53;123627;1099;104379;-77
2023/07/03 02:40:13;;;;;;;21.00;9.67;;;;;;;21.14;66.23;99769.56;123521;1099;104344;-77
2023/07/03 02:42:44;;;;;;;17.90;9.20;;;;;;;21.15;66.07;99766.00;123619;1099;104325;-77
2023/07/03 02:45:16;;;;;;;15.67;8.50;;;;;;;21.16;65.82;99764.20;123581;1099;104348;-77
2023/07/03 02:47:48;;;;;;;15.60;8.40;;;;;;;21.17;66.80;99774.84;123430;1099;104270;-79
2023/07/03 02:50:20;;;;;;;16.63;8.67;;;;;;;21.14;65.84;99772.23;123416;1099;104249;-77
2023/07/03 02:52:51;;;;;;;16.87;9.70;;;;;;;21.13;66.56;99774.92;123540;1099;104252;-77
2023/07/03 02:55:23;;;;;;;19.33;9.30;;;;;;;21.16;66.57;99773.10;123665;1098;104383;-79
2023/07/03 02:57:55;;;;;;;14.25;8.55;;;;;;;21.16;65.99;99774.87;123685;1099;104415;-77
2023/07/03 03:00:28;;;;;;;16.60;8.37;;;;;;;21.15;66.77;99774.00;123568;1099;104222;-76
2023/07/03 03:02:59;;;;;;;16.87;8.10;;;;;;;21.17;66.55;99774.84;123652;1099;104271;-78
2023/07/03 03:05:31;;;;;;;15.37;8.50;;;;;;;21.19;66.45;99772.14;123617;1099;104328;-77
2023/07/03 03:08:02;;;;;;;16.23;8.43;;;;;;;21.17;66.59;99774.84;123273;1099;104213;-77
2023/07/03 03:10:33;;;;;;;15.93;8.50;;;;;;;21.16;66.13;99773.10;123559;1099;104501;-76
2023/07/03 03:13:05;;;;;;;16.30;8.60;;;;;;;21.13;65.97;99773.16;123528;1099;104274;-78
2023/07/03 03:15:38;;;;;;;14.33;8.80;;;;;;;21.12;66.62;99778.53;123541;1098;104338;-77
2023/07/03 03:18:09;;;;;;;14.13;8.77;;;;;;;21.12;66.11;99781.19;123746;1099;104344;-76
2023/07/03 03:20:40;;;;;;;16.97;9.03;;;;;;;21.11;67.43;99782.95;123514;1099;104306;-77
2023/07/03 03:23:12;;;;;;;17.00;8.93;;;;;;;21.12;66.81;99787.39;123593;1099;104405;-76
2023/07/03 03:25:43;;;;;;;18.45;9.40;;;;;;;21.09;67.80;99790.13;123543;1099;104724;-76
2023/07/03 03:28:14;;;;;;;14.20;8.70;;;;;;;21.03;67.55;99787.56;123672;1099;104252;-77
2023/07/03 03:30:46;;;;;;;19.10;8.97;;;;;;;21.04;68.49;99793.80;123699;1099;104344;-77
2023/07/03 03:33:17;;;;;;;17.30;8.97;;;;;;;21.03;67.25;99792.03;123681;1099;104319;-78
2023/07/03 03:35:49;;;;;;;18.00;9.03;;;;;;;21.04;67.59;99793.80;123684;1099;104654;-77
2023/07/03 03:38:20;;;;;;;17.00;8.90;;;;;;;21.06;68.09;99794.64;123512;1098;104332;-77
2023/07/03 03:40:58;;;;;;;16.60;9.03;;;;;;;21.07;67.82;99799.95;123341;1098;104402;-76
2023/07/03 03:43:32;;;;;;;18.13;9.23;;;;;;;21.05;67.94;99801.78;123671;1098;104268;-76
2023/07/03 03:46:04;;;;;;;17.23;9.00;;;;;;;21.05;68.46;99799.11;123774;1099;104389;-75
2023/07/03 03:48:36;;;;;;;17.50;9.13;;;;;;;21.06;68.70;99806.19;123509;1099;104386;-76
2023/07/03 03:51:09;;;;;;;15.43;8.27;;;;;;;21.09;68.67;99807.92;123569;1102;104456;-76
2023/07/03 03:53:41;;;;;;;17.30;8.90;;;;;;;21.10;68.50;99813.23;123776;1099;104268;-76
2023/07/03 03:56:14;;;;;;;14.53;8.57;;;;;;;21.11;68.12;99814.10;123674;1099;104348;-76
2023/07/03 03:58:46;;;;;;;16.17;8.68;;;;;;;21.12;67.78;99810.53;123600;1099;104315;-77
2023/07/03 04:01:17;;;;;;;17.50;8.60;;;;;;;21.16;68.16;99814.88;123657;1099;105707;-76
2023/07/03 04:03:48;;;;;;;16.57;8.07;;;;;;;21.17;68.17;99813.98;123600;1098;104396;-76
2023/07/03 04:06:19;;;;;;;19.03;8.60;;;;;;;21.21;68.43;99817.47;123609;1099;104264;-77
2023/07/03 04:08:51;;;;;;;16.63;8.33;;;;;;;21.25;68.58;99824.52;123650;1099;104271;-76
2023/07/03 04:11:23;;;;;;;12.87;7.70;;;;;;;21.29;68.52;99828.89;123901;1099;104338;-75
2023/07/03 04:13:55;;;;;;;16.83;8.27;;;;;;;21.31;68.04;99830.61;123734;1099;104485;-76
2023/07/03 04:16:29;;;;;;;15.07;8.00;;;;;;;21.36;68.62;99827.84;123908;1098;104211;-75
2023/07/03 04:19:00;;;;;;;14.73;7.83;;;;;;;21.41;68.88;99825.09;123735;1099;104258;-75
2023/07/03 04:21:31;;;;;;;17.50;9.07;;;;;;;21.47;67.78;99830.31;123728;1098;104239;-76
2023/07/03 04:24:03;;;;;;;13.57;7.60;;;;;;;21.50;68.05;99825.84;123431;1099;104358;-76
2023/07/03 04:26:36;;;;;;;19.20;8.57;;;;;;;21.59;68.85;99837.24;123616;1099;104415;-77
2023/07/03 04:29:06;;;;;;;;;;;;;;;21.63;68.25;99836.25;123723;1099;104269;-75
2023/07/03 04:31:39;;;;;;;14.17;8.37;;;;;;;21.67;68.59;99825.47;123751;1099;104717;-75
2023/07/03 04:34:10;;;;;;;19.20;7.90;;;;;;;21.76;68.81;99836.90;124213;1099;104188;-76
2023/07/03 04:36:41;;;;;;;15.93;7.83;;;;;;;21.80;67.74;99835.90;123911;1099;104277;-77
2023/07/03 04:39:14;;;;;;;15.47;8.33;;;;;;;21.82;68.33;99842.98;124026;1098;104205;-77
2023/07/03 04:41:45;;;;;;;13.90;8.03;;;;;;;21.85;68.22;99845.59;124080;1099;104376;-75
2023/07/03 04:44:16;;;;;;;13.07;7.70;;;;;;;21.89;67.95;99843.72;124423;1099;104310;-77
2023/07/03 04:46:48;;;;;;;14.57;7.83;;;;;;;21.94;68.01;99854.31;124238;1099;104595;-76
2023/07/03 04:49:22;;;;;;;15.30;7.60;;;;;;;22.00;68.31;99859.52;124002;1099;104322;-77
2023/07/03 04:51:54;;;;;;;16.95;8.18;;;;;;;22.06;67.76;99856.72;124778;1099;104225;-76
2023/07/03 04:54:27;;;;;;;18.77;8.30;;;;;;;22.13;67.50;99852.11;124478;1099;104166;-73
2023/07/03 04:56:59;;;;;;;17.75;8.30;;;;;;;22.18;67.96;99856.45;124453;1098;104287;-73
2023/07/03 04:59:30;;;;;;;16.20;8.47;;;;;;;22.25;68.12;99860.75;124235;1099;104270;-72
2023/07/03 05:02:01;;;;;;;15.73;7.70;;;;;;;22.33;68.15;99862.38;124304;1099;104206;-73
2023/07/03 05:04:33;;;;;;;15.00;7.80;;;;;;;22.39;67.90;99862.25;123908;1099;104271;-75
2023/07/03 05:07:04;;;;;;;18.53;8.07;;;;;;;22.48;67.84;99867.38;124361;1099;104182;-75
2023/07/03 05:09:35;;;;;;;16.67;8.03;;;;;;;22.55;68.05;99871.68;124127;1099;104271;-77
2023/07/03 05:12:09;;;;;;;15.73;8.00;;;;;;;22.65;67.50;99877.67;124531;1099;104217;-76
2023/07/03 05:14:40;;;;;;;17.30;8.05;;;;;;;22.72;66.97;99868.60;124707;1099;104264;-75
2023/07/03 05:17:12;;;;;;;17.43;8.37;;;;;;;22.80;67.34;99871.09;124417;1098;104386;-74
2023/07/03 05:19:43;;;;;;;16.43;8.27;;;;;;;22.90;67.61;99872.60;124249;1099;104256;-72
2023/07/03 05:22:15;;;;;;;14.73;7.30;;;;;;;22.97;67.47;99874.22;124208;1099;104281;-73
2023/07/03 05:24:49;;;;;;;19.77;8.23;;;;;;;23.09;67.15;99873.07;124383;1099;104271;-83
2023/07/03 05:27:20;;;;;;;15.40;7.60;;;;;;;23.19;67.13;99871.02;124511;1099;103518;-76
2023/07/03 05:29:52;;;;;;;14.23;8.27;;;;;;;23.28;66.82;99876.13;125229;1099;104219;-78
2023/07/03 05:32:23;;;;;;;14.57;7.67;;;;;;;23.36;66.75;99875.94;124925;1099;104242;-80
2023/07/03 05:34:55;;;;;;;14.50;8.33;;;;;;;23.41;66.92;99875.81;124709;1098;104226;-76
2023/07/03 05:37:26;;;;;;;19.53;8.20;;;;;;;23.47;66.51;99878.32;124931;1099;104217;-76
2023/07/03 05:39:59;;;;;;;15.93;8.30;;;;;;;23.56;66.64;99880.75;124677;1099;104676;-75
2023/07/03 05:42:31;;;;;;;15.40;7.77;;;;;;;23.64;66.22;99883.21;124957;1099;104286;-75
2023/07/03 05:45:03;;;;;;;15.87;7.63;;;;;;;23.73;66.23;99890.09;125095;1099;104159;-80
2023/07/03 05:47:37;;;;;;;16.77;7.77;;;;;;;23.78;65.99;99885.47;125041;1098;103189;-76
2023/07/03 05:50:13;;;;;;;17.97;7.77;;;;;;;23.85;66.19;99882.61;125189;1098;104172;-76
2023/07/03 05:52:44;;;;;;;14.63;7.60;;;;;;;23.94;65.66;99884.16;125418;1099;104172;-76
2023/07/03 05:55:16;;;;;;;17.03;7.80;;;;;;;24.02;65.62;99884.80;125596;1099;104313;-77
2023/07/03 05:57:48;;;;;;;14.80;6.60;;;;;;;24.15;65.59;99887.11;125002;1099;104307;-77
2023/07/03 06:00:24;;;;;;;17.37;7.67;;;;;;;24.25;64.95;99890.38;125130;1099;103224;-80
2023/07/03 06:02:56;;;;;;;17.40;7.83;;;;;;;24.36;64.92;99891.82;125105;1099;104495;-78
2023/07/03 06:05:31;;;;;;;18.00;8.27;;;;;;;24.47;64.66;99893.30;125372;1098;103583;-83
2023/07/03 06:08:05;;;;;;;15.57;7.50;;;;;;;24.61;64.12;99891.09;124917;1099;104230;-77
2023/07/03 06:10:38;;;;;;;17.77;7.57;;;;;;;24.64;63.83;99890.99;125179;1099;104230;-80
2023/07/03 06:13:14;;;;;;;15.37;7.23;;;;;;;24.73;63.89;99896.06;125928;1099;104198;-80
2023/07/03 06:15:45;;;;;;;13.10;7.50;;;;;;;24.81;63.80;99898.50;125912;1099;102511;-79
2023/07/03 06:18:23;;;;;;;18.40;7.43;;;;;;;24.89;63.61;99900.93;125704;1099;102749;-78
2023/07/03 06:21:20;;;;;;;15.83;7.70;;;;;;;25.00;63.51;99896.08;125559;1099;102678;-81
2023/07/03 06:23:54;;;;;;;16.13;7.83;;;;;;;25.08;62.66;99903.88;125275;1099;104242;-82
2023/07/03 06:26:26;;;;;;;21.47;8.43;;;;;;;25.17;63.07;99908.06;125496;1099;104264;-80
2023/07/03 06:28:58;;;;;;;16.77;7.50;;;;;;;25.24;62.60;99909.59;125457;1099;104195;-79
2023/07/03 06:31:30;;;;;;;17.60;7.30;;;;;;;25.32;61.50;99910.22;125186;1099;104194;-78
2023/07/03 06:34:06;;;;;;;16.23;7.10;;;;;;;25.42;62.07;99922.41;124955;1099;102083;-80
2023/07/03 06:36:37;;;;;;;13.23;6.83;;;;;;;25.57;61.56;99914.73;125011;1098;104239;-81
2023/07/03 06:39:10;;;;;;;15.80;7.37;;;;;;;25.70;61.61;99916.06;124965;1099;104242;-81
2023/07/03 06:41:41;;;;;;;12.00;6.80;;;;;;;25.88;60.73;99925.25;124911;1099;103791;-76
2023/07/03 06:44:17;;;;;;;14.93;6.63;;;;;;;25.93;59.32;99915.23;124691;1098;104195;-79
2023/07/03 06:46:52;;;;;;;12.97;6.83;;;;;;;26.02;59.52;99911.33;124654;1099;104223;-76
2023/07/03 06:49:24;;;;;;;11.77;6.90;;;;;;;26.11;59.40;99916.36;124744;1099;104309;-75
2023/07/03 06:51:57;;;;;;;11.33;6.53;;;;;;;26.17;58.62;99915.27;124939;1099;104772;-77
2023/07/03 06:54:33;;;;;;;15.10;6.90;;;;;;;26.24;58.26;99915.90;124538;1099;103555;-75
2023/07/03 06:57:06;;;;;;;12.97;7.00;;;;;;;26.33;57.58;99912.86;124894;1099;104369;-76
2023/07/03 06:59:38;;;;;;;11.00;7.10;;;;;;;26.45;57.89;99909.69;124858;1099;104235;-76
2023/07/03 07:02:11;;;;;;;13.17;6.80;;;;;;;26.58;57.66;99909.20;124906;1099;104236;-81
2023/07/03 07:04:42;;;;;;;;;;;;;;;26.76;56.04;99913.88;124635;1099;103306;-77
2023/07/03 07:07:14;;;;;;;13.80;6.87;;;;;;;26.94;56.44;99927.52;124701;1099;104239;-74
2023/07/03 07:09:52;;;;;;;14.20;6.47;;;;;;;27.09;56.68;99916.98;124712;1099;104169;-80
2023/07/03 07:12:30;;;;;;;13.20;6.83;;;;;;;27.30;56.20;99921.52;124928;1099;104175;-77
2023/07/03 07:15:02;;;;;;;13.90;7.13;;;;;;;27.47;55.53;99915.44;124879;1099;102917;-78
2023/07/03 07:17:34;;;;;;;10.90;6.03;;;;;;;27.62;54.77;99926.41;124942;1099;104217;-81
2023/07/03 07:20:08;;;;;;;12.77;6.43;;;;;;;27.80;54.38;99918.48;124828;1099;104200;-78
2023/07/03 07:22:40;;;;;;;12.40;6.23;;;;;;;27.96;54.40;99916.85;126615;1099;103931;-75
2023/07/03 07:25:13;;;;;;;12.93;6.50;;;;;;;28.06;53.63;99905.64;125982;1099;104501;-80
2023/07/03 07:27:44;;;;;;;13.10;6.45;;;;;;;28.28;53.74;99914.50;124924;1099;104265;-75
2023/07/03 07:30:17;;;;;;;10.15;5.85;;;;;;;28.45;52.69;99908.27;124634;1099;104179;-81
2023/07/03 07:32:51;;;;;;;12.18;6.12;;;;;;;28.68;51.15;99912.59;124647;1099;104194;-77
2023/07/03 07:35:23;;;;;;;10.83;6.13;;;;;;;28.83;51.60;99915.52;124855;1099;104259;-78
2023/07/03 07:37:54;;;;;;;11.73;5.93;;;;;;;28.99;50.97;99916.48;124951;1099;104135;-77
2023/07/03 07:40:27;;;;;;;13.77;6.23;;;;;;;29.22;50.00;99922.59;124886;1099;104201;-78
2023/07/03 07:43:01;;;;;;;13.87;6.17;;;;;;;29.51;49.33;99921.06;124766;1099;104306;-79
2023/07/03 07:45:34;;;;;;;13.13;6.53;;;;;;;29.74;48.88;99924.40;124772;1099;104312;-78
2023/07/03 07:48:13;;;;;;;11.23;5.93;;;;;;;29.87;48.49;99925.53;124962;1099;104287;-81
2023/07/03 07:50:45;;;;;;;12.50;6.27;;;;;;;30.05;47.34;99929.06;124781;1099;104188;-75
2023/07/03 07:53:18;;;;;;;14.63;5.93;;;;;;;30.20;46.84;99926.47;124906;1099;103534;-80
2023/07/03 07:55:48;;;;;;;;;;;;;;;30.30;44.17;99935.83;125260;1099;102492;-78
2023/07/03 07:58:25;;;;;;;10.83;6.20;;;;;;;30.39;45.82;99924.53;124961;1099;104242;-78
2023/07/03 08:00:57;;;;;;;13.67;6.17;;;;;;;30.50;45.89;99921.22;125190;1099;104233;-82
2023/07/03 08:03:43;;;;;;;12.33;6.37;;;;;;;30.63;45.42;99922.25;125042;1099;104115;-74
2023/07/03 08:06:16;;;;;;;11.17;6.23;;;;;;;30.78;45.18;99933.19;124816;1098;104156;-75
2023/07/03 08:08:48;;;;;;;12.37;6.90;;;;;;;30.91;45.49;99931.50;124719;1099;104325;-77
2023/07/03 08:11:19;;;;;;;11.13;5.80;;;;;;;30.91;44.62;99931.50;124676;1099;102395;-78
2023/07/03 08:13:51;;;;;;;9.85;6.30;;;;;;;30.97;44.59;99933.03;124677;1098;104275;-76
2023/07/03 08:16:25;;;;;;;13.07;6.43;;;;;;;31.00;44.35;99932.84;124801;1099;104175;-79
2023/07/03 08:19:01;;;;;;;12.03;6.50;;;;;;;30.93;44.25;99934.13;124748;1099;104240;-76
2023/07/03 08:21:34;;;;;;;11.80;6.23;;;;;;;30.99;44.02;99936.51;124872;1099;104219;-76
2023/07/03 08:24:08;;;;;;;13.00;6.20;;;;;;;31.18;44.10;99931.77;124913;1099;104166;-76
2023/07/03 08:26:41;;;;;;;9.87;5.90;;;;;;;31.37;43.21;99938.80;125007;1099;104262;-77
2023/07/03 08:29:20;;;;;;;11.13;6.27;;;;;;;31.49;42.96;99938.06;124539;1099;104425;-79
2023/07/03 08:31:52;;;;;;;11.90;6.20;;;;;;;31.61;42.72;99938.31;124779;1099;104169;-78
2023/07/03 08:34:24;;;;;;;11.67;6.10;;;;;;;31.71;42.76;99936.77;124369;1099;104411;-75
2023/07/03 08:36:57;;;;;;;11.80;5.73;;;;;;;31.87;42.32;99939.42;124585;1099;104236;-74
2023/07/03 08:39:32;;;;;;;11.00;6.13;;;;;;;31.90;42.40;99944.66;124775;1099;104155;-80
2023/07/03 08:42:09;;;;;;;9.60;5.87;;;;;;;31.86;41.97;99943.09;124745;1099;104245;-76
2023/07/03 08:44:41;;;;;;;12.33;6.07;;;;;;;31.86;41.58;99941.24;124802;1099;104242;-76
2023/07/03 08:47:20;;;;;;;12.63;6.40;;;;;;;31.93;41.66;99939.05;125104;1099;104246;-79
2023/07/03 08:49:54;;;;;;;9.17;5.60;;;;;;;32.09;41.70;99938.98;124674;1099;104230;-82
2023/07/03 08:52:33;;;;;;;12.07;6.30;;;;;;;32.08;41.62;99946.23;124425;1099;104290;-75
2023/07/03 08:55:07;;;;;;;12.33;6.27;;;;;;;32.08;41.34;99942.63;124383;1099;104249;-74
2023/07/03 08:57:40;;;;;;;11.17;5.90;;;;;;;32.06;41.58;99945.43;124529;1099;104277;-79
2023/07/03 09:00:16;;;;;;;8.70;5.40;;;;;;;32.07;41.08;99957.18;124642;1099;102170;-79
2023/07/03 09:02:54;;;;;;;10.83;6.10;;;;;;;32.04;40.56;99947.37;124446;1099;104388;-81
2023/07/03 09:05:39;;;;;;;10.20;6.00;;;;;;;32.14;41.06;99950.41;124820;1099;104178;-77
2023/07/03 09:08:18;;;;;;;9.00;6.23;;;;;;;32.19;40.84;99940.13;124722;1099;104271;-78
2023/07/03 09:10:51;;;;;;;10.37;5.90;;;;;;;32.04;41.01;99947.37;124735;1099;104354;-73
2023/07/03 09:13:29;;;;;;;9.07;6.07;;;;;;;31.94;40.89;99950.76;124790;1099;104157;-78
2023/07/03 09:16:14;;;;;;;13.20;6.10;;;;;;;31.97;40.73;99951.43;124877;1099;102161;-81
2023/07/03 09:19:01;;;;;;;9.93;5.70;;;;;;;31.83;40.30;99960.42;124703;1099;104341;-80
2023/07/03 09:21:40;;;;;;;8.47;5.40;;;;;;;31.78;40.51;99948.13;124805;1099;104239;-78
2023/07/03 09:24:31;;;;;;;12.80;5.93;;;;;;;31.73;40.34;99945.70;124739;1099;104246;-81
2023/07/03 09:27:13;;;;;;;9.37;5.80;;;;;;;31.70;40.14;99954.89;124587;1099;104258;-78
2023/07/03 09:30:03;;;;;;;10.77;5.93;;;;;;;31.79;40.16;99953.46;124816;1099;104185;-79
2023/07/03 09:32:35;;;;;;;11.23;6.17;;;;;;;31.72;39.64;99955.66;124611;1099;104662;-74
2023/07/03 09:35:17;;;;;;;10.03;5.90;;;;;;;31.68;40.02;99950.52;124931;1099;103405;-78
2023/07/03 09:37:52;;;;;;;10.30;6.03;;;;;;;31.85;40.06;99952.19;125119;1099;104057;-77
2023/07/03 09:40:34;;;;;;;8.77;5.33;;;;;;;31.94;39.88;99953.47;124867;1099;104281;-77
2023/07/03 09:43:14;;;;;;;9.18;5.42;;;;;;;31.94;39.55;99953.47;124897;1099;104198;-77
2023/07/03 09:45:47;;;;;;;8.90;5.30;;;;;;;31.93;39.47;99958.03;125150;1099;102602;-73
2023/07/03 09:48:35;;;;;;;8.98;5.83;;;;;;;31.92;39.23;99948.14;124939;1098;104264;-81
2023/07/03 09:51:27;;;;;;;6.97;5.30;;;;;;;31.91;39.10;99962.66;125434;1098;104217;-79
2023/07/03 09:54:06;;;;;;;9.03;5.63;;;;;;;31.93;38.97;99952.61;124921;1099;104182;-79
2023/07/03 09:56:39;;;;;;;11.93;5.67;;;;;;;32.02;39.07;99951.14;124919;1099;104239;-77
2023/07/03 09:59:16;;;;;;;8.70;5.80;;;;;;;32.21;39.34;99962.63;124950;1099;104220;-81
2023/07/03 10:01:49;;;;;;;13.23;6.00;;;;;;;32.36;39.39;99954.48;124700;1099;103666;-77
2023/07/03 10:04:21;;;;;;;8.73;5.43;;;;;;;32.45;39.01;99951.17;125019;1098;104192;-80
2023/07/03 10:07:01;;;;;;;11.80;6.07;;;;;;;32.27;38.63;99963.20;124837;1099;104180;-76
2023/07/03 10:09:39;;;;;;;10.80;5.90;;;;;;;32.17;38.51;99958.36;124827;1099;103455;-76
2023/07/03 10:12:18;;;;;;;10.50;5.83;;;;;;;32.17;38.30;99962.92;124858;1098;104316;-77
2023/07/03 10:14:58;;;;;;;10.00;5.87;;;;;;;32.22;38.19;99968.92;125017;1099;104216;-76
2023/07/03 10:17:33;;;;;;;10.13;6.00;;;;;;;32.21;38.37;99959.03;124780;1099;104236;-79
2023/07/03 10:20:10;;;;;;;10.83;6.13;;;;;;;32.31;38.63;99946.63;124915;1099;112279;-78
2023/07/03 10:22:44;;;;;;;9.53;6.07;;;;;;;32.48;38.56;99944.69;124928;1099;102323;-78
2023/07/03 10:25:22;;;;;;;11.57;6.50;;;;;;;32.54;38.29;99939.72;124818;1099;104235;-78
2023/07/03 10:28:00;;;;;;;8.83;6.23;;;;;;;32.46;38.53;99942.07;125171;1099;104064;-80
2023/07/03 10:30:37;;;;;;;11.60;6.37;;;;;;;32.31;38.72;99941.20;125095;1099;102283;-80
2023/07/03 10:33:14;;;;;;;9.50;6.03;;;;;;;32.25;38.54;99938.88;125144;1099;104185;-80
2023/07/03 10:35:52;;;;;;;12.23;6.47;;;;;;;32.17;38.53;99930.36;124973;1099;104163;-82
2023/07/03 10:38:38;;;;;;;13.05;6.05;;;;;;;32.21;38.35;99926.45;124983;1099;104336;-80
2023/07/03 10:41:19;;;;;;;9.20;5.87;;;;;;;32.19;38.34;99937.41;126856;1098;102114;-78
2023/07/03 10:43:57;;;;;;;12.23;6.50;;;;;;;32.11;38.48;99931.61;126053;1098;104242;-79
2023/07/03 10:46:36;;;;;;;13.50;6.57;;;;;;;32.16;38.45;99925.89;125082;1099;104162;-82
2023/07/03 10:49:16;;;;;;;9.07;6.03;;;;;;;32.21;38.47;99916.49;125236;1099;102347;-83
2023/07/03 10:52:00;;;;;;;9.77;6.40;;;;;;;32.29;38.19;99917.83;124903;1099;104689;-78
2023/07/03 10:54:38;;;;;;;9.10;6.10;;;;;;;32.47;38.71;99916.64;124722;1098;104332;-83
2023/07/03 10:57:18;;;;;;;10.67;6.37;;;;;;;32.58;38.03;99908.69;124658;1099;104272;-76
2023/07/03 11:00:01;;;;;;;11.25;5.90;;;;;;;32.60;38.39;99912.16;124892;1099;104165;-75
2023/07/03 11:02:41;;;;;;;10.23;6.20;;;;;;;32.48;38.41;99915.68;125166;1099;103725;-75
2023/07/03 11:05:22;;;;;;;9.57;6.47;;;;;;;32.21;38.59;99911.06;124787;1099;104168;-74
2023/07/03 11:08:03;;;;;;;9.53;6.40;;;;;;;32.08;39.42;99910.06;124704;1099;104376;-80
2023/07/03 11:10:42;;;;;;;9.17;6.43;;;;;;;32.11;39.12;99903.61;124332;1102;103215;-81
2023/07/03 11:13:23;;;;;;;12.17;6.40;;;;;;;32.02;38.83;99914.05;124786;1099;103234;-78
2023/07/03 11:16:03;;;;;;;12.27;7.60;;;;;;;31.82;38.88;99920.72;124610;1099;104241;-73
2023/07/03 11:18:48;;;;;;;12.07;6.83;;;;;;;31.74;39.36;99916.73;124330;1103;102320;-77
2023/07/03 11:21:41;;;;;;;10.00;6.60;;;;;;;31.79;39.43;99923.63;124779;1099;102065;-78
2023/07/03 11:24:21;;;;;;;11.20;6.60;;;;;;;31.74;39.33;99917.59;124765;1099;104178;-77
2023/07/03 11:27:00;;;;;;;11.60;6.80;;;;;;;31.75;39.19;99922.06;124835;1099;104179;-82
2023/07/03 11:29:33;;;;;;;10.27;6.70;;;;;;;31.72;38.84;99919.54;124786;1099;104172;-78
2023/07/03 11:32:07;;;;;;;8.47;6.33;;;;;;;31.75;38.91;99907.64;124979;1099;103427;-81
2023/07/03 11:34:39;;;;;;;10.73;6.43;;;;;;;31.82;38.90;99920.72;124986;1099;104344;-77
2023/07/03 11:37:35;;;;;;;9.30;6.77;;;;;;;31.83;38.83;99917.02;125158;1099;104363;-78
2023/07/03 11:40:33;;;;;;;11.63;7.00;;;;;;;31.77;38.81;99916.54;124958;1099;104207;-75
2023/07/03 11:43:32;;;;;;;11.17;6.30;;;;;;;31.87;38.64;99923.15;124887;1099;103335;-74
2023/07/03 11:46:26;;;;;;;10.17;6.53;;;;;;;31.93;38.42;99924.59;124914;1098;104393;-74